createdAt,value
2024-03-01T00:00:16.021Z,6.22
2024-03-01T00:01:16.091Z,6.22
2024-03-01T00:02:15.991Z,6.18
2024-03-01T00:03:16.010Z,6.30
2024-03-01T00:04:16.032Z,6.30
2024-03-01T00:05:16.011Z,6.28
2024-03-01T00:06:15.977Z,6.33
2024-03-01T00:07:16.057Z,6.34
2024-03-01T00:08:15.956Z,6.33
2024-03-01T00:09:15.917Z,6.36
2024-03-01T00:10:16.038Z,6.31
2024-03-01T00:11:15.949Z,6.34
2024-03-01T00:12:15.896Z,6.38
2024-03-01T00:13:15.915Z,6.40
2024-03-01T00:14:15.870Z,6.37
2024-03-01T00:15:15.861Z,6.41
2024-03-01T00:16:15.913Z,6.41
2024-03-01T00:17:15.837Z,6.44
2024-03-01T00:23:24.795Z,6.48
2024-03-01T00:24:25.805Z,6.40
2024-03-01T00:25:25.825Z,6.41
2024-03-01T00:26:25.752Z,6.43
2024-03-01T00:27:25.748Z,6.49
2024-03-01T00:28:25.796Z,6.44
2024-03-01T00:29:25.755Z,6.46
2024-03-01T00:30:25.726Z,6.46
2024-03-01T00:31:25.735Z,6.46
2024-03-01T00:32:25.717Z,6.51
2024-03-01T00:33:25.745Z,6.48
2024-03-01T00:34:25.745Z,6.46
2024-03-01T00:35:25.668Z,6.51
2024-03-01T00:36:25.646Z,6.44
2024-03-01T00:37:25.738Z,6.54
2024-03-01T00:38:25.658Z,6.49
2024-03-01T00:39:25.632Z,6.48
2024-03-01T00:40:25.653Z,6.51
2024-03-01T00:41:25.603Z,6.55
2024-03-01T00:42:25.623Z,6.46
2024-03-01T00:43:25.721Z,6.55
2024-03-01T00:44:25.564Z,6.52
2024-03-01T00:45:25.564Z,6.52
2024-03-01T00:46:25.603Z,6.51
2024-03-01T00:47:25.602Z,6.51
2024-03-01T00:48:25.536Z,6.52
2024-03-01T00:49:25.564Z,6.54
2024-03-01T00:50:25.546Z,6.49
2024-03-01T00:51:25.541Z,6.52
2024-03-01T00:52:25.579Z,6.55
2024-03-01T00:53:25.477Z,6.55
2024-03-01T00:54:25.479Z,6.59
2024-03-01T00:55:25.506Z,6.58
2024-03-01T00:56:25.481Z,6.61
2024-03-01T00:57:25.446Z,6.59
2024-03-01T00:58:25.475Z,6.54
2024-03-01T00:59:25.436Z,6.58
2024-03-01T01:00:25.404Z,6.61
2024-03-01T01:01:25.471Z,6.64
2024-03-01T01:02:39.600Z,6.58
2024-03-01T01:03:25.363Z,6.58
2024-03-01T01:04:25.416Z,6.67
2024-03-01T01:05:25.349Z,6.66
2024-03-01T01:06:25.354Z,6.64
2024-03-01T01:07:25.408Z,6.62
2024-03-01T01:08:25.306Z,6.70
2024-03-01T01:09:25.295Z,6.76
2024-03-01T01:10:25.398Z,6.73
2024-03-01T01:11:25.315Z,6.77
2024-03-01T01:12:25.311Z,6.79
2024-03-01T01:13:25.304Z,6.77
2024-03-01T01:14:25.258Z,6.76
2024-03-01T01:15:25.250Z,6.81
2024-03-01T01:16:25.362Z,6.87
2024-03-01T01:17:25.209Z,6.80
2024-03-01T01:18:25.209Z,6.81
2024-03-01T01:19:25.228Z,6.85
2024-03-01T01:20:25.207Z,6.79
2024-03-01T01:21:25.187Z,6.81
2024-03-01T01:22:25.244Z,6.85
2024-03-01T01:23:25.159Z,6.85
2024-03-01T01:24:25.158Z,6.87
2024-03-01T01:25:25.172Z,6.80
2024-03-01T01:26:25.123Z,6.85
2024-03-01T01:27:25.109Z,6.88
2024-03-01T01:28:25.195Z,6.84
2024-03-01T01:29:25.092Z,6.84
2024-03-01T01:30:25.076Z,6.88
2024-03-01T01:31:25.224Z,6.85
2024-03-01T01:32:25.102Z,6.84
2024-03-01T01:33:25.058Z,6.92
2024-03-01T01:34:25.076Z,6.94
2024-03-01T01:35:25.019Z,6.89
2024-03-01T01:36:25.021Z,6.92
2024-03-01T01:37:25.026Z,6.88
2024-03-01T01:38:25.012Z,6.84
2024-03-01T01:39:24.993Z,6.91
2024-03-01T01:40:25.016Z,6.88
2024-03-01T01:41:24.959Z,6.85
2024-03-01T01:42:24.960Z,6.87
2024-03-01T01:43:24.997Z,6.85
2024-03-01T01:44:24.933Z,6.85
2024-03-01T01:45:24.913Z,6.84
2024-03-01T01:46:24.968Z,6.84
2024-03-01T01:47:24.952Z,6.88
2024-03-01T01:48:24.899Z,6.84
2024-03-01T01:49:25.065Z,6.89
2024-03-01T01:50:24.877Z,6.87
2024-03-01T01:51:24.841Z,6.87
2024-03-01T01:52:24.956Z,6.88
2024-03-01T01:53:27.612Z,6.88
2024-03-01T01:54:24.829Z,6.81
2024-03-01T01:55:24.833Z,6.85
2024-03-01T01:56:24.807Z,6.84
2024-03-01T01:57:24.805Z,6.87
2024-03-01T01:58:24.824Z,6.89
2024-03-01T01:59:24.779Z,6.88
2024-03-01T02:00:24.777Z,6.89
2024-03-01T02:01:24.848Z,6.89
2024-03-01T02:02:24.762Z,6.87
2024-03-01T02:03:24.727Z,6.87
2024-03-01T02:04:24.731Z,6.87
2024-03-01T02:05:24.701Z,6.87
2024-03-01T02:06:24.717Z,6.88
2024-03-01T02:07:24.745Z,6.87
2024-03-01T02:08:24.692Z,6.87
2024-03-01T02:09:24.649Z,6.89
2024-03-01T02:10:24.712Z,6.88
2024-03-01T02:11:24.662Z,6.89
2024-03-01T02:12:24.717Z,6.91
2024-03-01T02:13:24.800Z,6.87
2024-03-01T02:14:24.607Z,6.88
2024-03-01T02:15:24.617Z,6.91
2024-03-01T02:16:24.708Z,6.84
2024-03-01T02:17:24.582Z,6.87
2024-03-01T02:18:24.609Z,6.88
2024-03-01T02:19:24.664Z,6.87
2024-03-01T02:20:24.566Z,6.87
2024-03-01T02:21:24.524Z,6.92
2024-03-01T02:22:24.581Z,6.91
2024-03-01T02:23:24.552Z,6.94
2024-03-01T02:24:24.530Z,6.89
2024-03-01T02:25:24.592Z,6.88
2024-03-01T02:26:24.499Z,6.95
2024-03-01T02:27:24.457Z,6.92
2024-03-01T02:28:24.552Z,6.92
2024-03-01T02:29:24.456Z,6.89
2024-03-01T02:30:24.463Z,6.87
2024-03-01T02:31:24.488Z,6.89
2024-03-01T02:32:24.438Z,6.89
2024-03-01T02:33:24.404Z,6.88
2024-03-01T02:34:24.482Z,6.92
2024-03-01T02:35:24.368Z,6.91
2024-03-01T02:36:24.381Z,6.89
2024-03-01T02:37:24.434Z,6.89
2024-03-01T02:38:24.349Z,6.94
2024-03-01T02:39:24.377Z,6.94
2024-03-01T02:40:24.344Z,6.92
2024-03-01T02:41:24.305Z,6.91
2024-03-01T02:42:24.307Z,6.92
2024-03-01T02:43:24.371Z,6.98
2024-03-01T02:44:24.366Z,6.92
2024-03-01T02:45:24.272Z,6.94
2024-03-01T02:46:24.396Z,6.95
2024-03-01T02:47:24.238Z,6.98
2024-03-01T02:48:24.261Z,6.94
2024-03-01T02:49:24.222Z,6.97
2024-03-01T02:50:24.225Z,6.92
2024-03-01T02:51:24.205Z,6.97
2024-03-01T02:52:24.252Z,6.94
2024-03-01T02:53:24.190Z,6.89
2024-03-01T02:54:24.178Z,6.97
2024-03-01T02:55:24.179Z,6.98
2024-03-01T02:56:24.162Z,6.95
2024-03-01T02:57:24.195Z,6.97
2024-03-01T02:58:24.188Z,6.94
2024-03-01T02:59:24.122Z,6.99
2024-03-01T03:00:24.136Z,6.97
2024-03-01T03:01:24.138Z,6.98
2024-03-01T03:02:24.106Z,6.98
2024-03-01T03:03:24.094Z,6.97
2024-03-01T03:04:24.091Z,6.97
2024-03-01T03:05:24.061Z,6.97
2024-03-01T03:06:24.109Z,7.02
2024-03-01T03:07:24.110Z,6.98
2024-03-01T03:08:24.043Z,6.94
2024-03-01T03:09:24.022Z,6.99
2024-03-01T03:10:24.033Z,7.02
2024-03-01T03:11:24.038Z,6.97
2024-03-01T03:12:24.015Z,6.98
2024-03-01T03:13:24.006Z,7.03
2024-03-01T03:14:23.983Z,6.98
2024-03-01T03:15:23.950Z,6.98
2024-03-01T03:16:24.006Z,7.02
2024-03-01T03:17:23.923Z,6.97
2024-03-01T03:18:23.947Z,7.03
2024-03-01T03:19:23.954Z,6.98
2024-03-01T03:20:23.895Z,6.98
2024-03-01T03:21:23.912Z,7.05
2024-03-01T03:22:23.917Z,7.02
2024-03-01T03:23:23.873Z,7.05
2024-03-01T03:24:23.860Z,7.02
2024-03-01T03:25:23.879Z,7.02
2024-03-01T03:26:23.846Z,6.99
2024-03-01T03:27:23.846Z,7.05
2024-03-01T03:28:23.973Z,7.05
2024-03-01T03:29:23.801Z,6.99
2024-03-01T03:30:23.800Z,7.06
2024-03-01T03:31:23.839Z,7.07
2024-03-01T03:32:23.775Z,7.07
2024-03-01T03:33:23.766Z,7.12
2024-03-01T03:34:23.757Z,7.05
2024-03-01T03:35:23.759Z,7.13
2024-03-01T03:36:23.724Z,7.06
2024-03-01T03:37:23.739Z,7.07
2024-03-01T03:38:23.712Z,7.13
2024-03-01T03:39:23.716Z,7.05
2024-03-01T03:40:23.737Z,7.10
2024-03-01T03:41:23.698Z,7.09
2024-03-01T03:42:23.657Z,7.06
2024-03-01T03:43:23.699Z,7.07
2024-03-01T03:44:23.650Z,7.09
2024-03-01T03:45:23.645Z,7.09
2024-03-01T03:46:23.665Z,7.09
2024-03-01T03:47:23.602Z,7.10
2024-03-01T03:48:23.592Z,7.10
2024-03-01T03:49:23.646Z,7.12
2024-03-01T03:50:23.586Z,7.07
2024-03-01T03:51:23.568Z,7.12
2024-03-01T03:52:23.616Z,7.13
2024-03-01T03:53:23.565Z,7.06
2024-03-01T03:54:23.553Z,7.07
2024-03-01T03:55:23.577Z,7.10
2024-03-01T03:56:23.512Z,7.09
2024-03-01T03:57:23.497Z,7.06
2024-03-01T03:58:23.531Z,7.10
2024-03-01T03:59:23.498Z,7.09
2024-03-01T04:00:23.479Z,7.03
2024-03-01T04:01:23.966Z,7.09
2024-03-01T04:02:23.466Z,7.10
2024-03-01T04:03:23.453Z,7.13
2024-03-01T04:04:23.475Z,7.05
2024-03-01T04:05:23.435Z,7.03
2024-03-01T04:06:23.423Z,7.06
2024-03-01T04:07:23.437Z,7.07
2024-03-01T04:08:23.404Z,7.05
2024-03-01T04:09:23.381Z,7.06
2024-03-01T04:10:23.398Z,7.06
2024-03-01T04:11:23.385Z,7.07
2024-03-01T04:12:23.373Z,7.15
2024-03-01T04:13:23.379Z,7.09
2024-03-01T04:14:23.304Z,7.12
2024-03-01T04:15:23.333Z,7.10
2024-03-01T04:16:23.386Z,7.10
2024-03-01T04:17:23.299Z,7.09
2024-03-01T04:18:23.300Z,7.06
2024-03-01T04:19:23.319Z,7.10
2024-03-01T04:20:23.248Z,7.12
2024-03-01T04:21:23.263Z,7.06
2024-03-01T04:22:23.276Z,7.13
2024-03-01T04:23:23.240Z,7.16
2024-03-01T04:24:23.247Z,7.13
2024-03-01T04:25:23.240Z,7.16
2024-03-01T04:26:23.206Z,7.10
2024-03-01T04:27:23.178Z,7.09
2024-03-01T04:28:23.371Z,7.10
2024-03-01T04:29:23.148Z,7.13
2024-03-01T04:30:23.148Z,7.10
2024-03-01T04:31:23.179Z,7.10
2024-03-01T04:32:23.114Z,7.13
2024-03-01T04:33:23.107Z,7.10
2024-03-01T04:34:23.152Z,7.12
2024-03-01T04:35:23.101Z,7.12
2024-03-01T04:36:23.083Z,7.21
2024-03-01T04:37:23.140Z,7.15
2024-03-01T04:38:23.071Z,7.13
2024-03-01T04:39:23.055Z,7.16
2024-03-01T04:40:23.100Z,7.21
2024-03-01T04:41:23.048Z,7.15
2024-03-01T04:42:23.031Z,7.15
2024-03-01T04:43:23.035Z,7.17
2024-03-01T04:44:23.011Z,7.17
2024-03-01T04:45:23.004Z,7.15
2024-03-01T04:46:22.996Z,7.25
2024-03-01T04:47:22.994Z,7.15
2024-03-01T04:48:22.954Z,7.16
2024-03-01T04:49:22.994Z,7.17
2024-03-01T04:50:22.949Z,7.23
2024-03-01T04:51:22.913Z,7.17
2024-03-01T04:52:22.982Z,7.17
2024-03-01T04:53:22.907Z,7.16
2024-03-01T04:54:22.911Z,7.16
2024-03-01T04:55:22.934Z,7.16
2024-03-01T04:56:22.861Z,7.25
2024-03-01T04:57:22.857Z,7.20
2024-03-01T04:58:22.882Z,7.21
2024-03-01T04:59:22.867Z,7.17
2024-03-01T05:00:23.042Z,7.20
2024-03-01T05:01:22.916Z,7.15
2024-03-01T05:02:22.810Z,7.17
2024-03-01T05:03:22.825Z,7.17
2024-03-01T05:04:22.818Z,7.15
2024-03-01T05:05:22.780Z,7.15
2024-03-01T05:06:22.773Z,7.15
2024-03-01T05:07:22.808Z,7.20
2024-03-01T05:08:22.771Z,7.21
2024-03-01T05:09:22.727Z,7.23
2024-03-01T05:10:22.878Z,7.24
2024-03-01T05:11:22.796Z,7.16
2024-03-01T05:12:22.701Z,7.23
2024-03-01T05:13:22.708Z,7.17
2024-03-01T05:14:22.685Z,7.24
2024-03-01T05:15:22.654Z,7.23
2024-03-01T05:16:22.657Z,7.25
2024-03-01T05:17:22.689Z,7.20
2024-03-01T05:18:22.625Z,7.27
2024-03-01T05:19:22.657Z,7.21
2024-03-01T05:20:22.602Z,7.24
2024-03-01T05:21:22.601Z,7.16
2024-03-01T05:22:22.611Z,7.21
2024-03-01T05:23:22.591Z,7.20
2024-03-01T05:24:22.568Z,7.20
2024-03-01T05:25:22.650Z,7.20
2024-03-01T05:26:22.562Z,7.23
2024-03-01T05:27:22.554Z,7.28
2024-03-01T05:28:22.601Z,7.21
2024-03-01T05:29:22.511Z,7.27
2024-03-01T05:30:32.906Z,7.24
2024-03-01T05:31:26.427Z,7.24
2024-03-01T05:32:22.494Z,7.23
2024-03-01T05:33:22.476Z,7.24
2024-03-01T05:34:22.495Z,7.23
2024-03-01T05:35:22.449Z,7.23
2024-03-01T05:36:22.454Z,7.24
2024-03-01T05:37:22.450Z,7.23
2024-03-01T05:38:22.429Z,7.23
2024-03-01T05:39:22.419Z,7.24
2024-03-01T05:40:22.442Z,7.23
2024-03-01T05:41:22.398Z,7.23
2024-03-01T05:42:23.529Z,7.21
2024-03-01T05:43:22.619Z,7.23
2024-03-01T05:44:22.334Z,7.17
2024-03-01T05:45:22.433Z,7.23
2024-03-01T05:46:22.339Z,7.28
2024-03-01T05:47:22.316Z,7.21
2024-03-01T05:48:22.319Z,7.20
2024-03-01T05:49:22.329Z,7.23
2024-03-01T05:50:22.294Z,7.23
2024-03-01T05:51:22.283Z,7.24
2024-03-01T05:52:22.341Z,7.25
2024-03-01T05:53:22.259Z,7.23
2024-03-01T05:54:22.299Z,7.25
2024-03-01T05:55:22.282Z,7.21
2024-03-01T05:56:22.233Z,7.23
2024-03-01T05:57:22.226Z,7.27
2024-03-01T05:58:22.270Z,7.24
2024-03-01T05:59:22.211Z,7.23
2024-03-01T06:00:22.184Z,7.31
2024-03-01T06:01:22.264Z,7.31
2024-03-01T06:02:22.168Z,7.25
2024-03-01T06:03:22.168Z,7.25
2024-03-01T06:04:22.230Z,7.30
2024-03-01T06:05:22.124Z,7.25
2024-03-01T06:06:22.115Z,7.25
2024-03-01T06:07:22.159Z,7.31
2024-03-01T06:08:22.104Z,7.35
2024-03-01T06:09:22.121Z,7.32
2024-03-01T06:10:22.200Z,7.24
2024-03-01T06:11:22.114Z,7.31
2024-03-01T06:12:22.054Z,7.25
2024-03-01T06:13:22.123Z,7.31
2024-03-01T06:14:22.042Z,7.28
2024-03-01T06:15:22.034Z,7.35
2024-03-01T06:16:22.037Z,7.31
2024-03-01T06:17:21.994Z,7.32
2024-03-01T06:18:22.010Z,7.30
2024-03-01T06:19:22.029Z,7.31
2024-03-01T06:20:21.979Z,7.31
2024-03-01T06:21:21.976Z,7.31
2024-03-01T06:22:21.966Z,7.28
2024-03-01T06:23:21.991Z,7.30
2024-03-01T06:24:21.928Z,7.32
2024-03-01T06:25:21.993Z,7.39
2024-03-01T06:26:21.888Z,7.34
2024-03-01T06:27:21.949Z,7.37
2024-03-01T06:28:21.916Z,7.39
2024-03-01T06:29:21.897Z,7.40
2024-03-01T06:30:21.855Z,7.35
2024-03-01T06:31:21.891Z,7.35
2024-03-01T06:32:21.876Z,7.37
2024-03-01T06:33:21.910Z,7.32
2024-03-01T06:34:21.833Z,7.37
2024-03-01T06:35:21.790Z,7.40
2024-03-01T06:36:21.835Z,7.39
2024-03-01T06:37:21.833Z,7.34
2024-03-01T06:38:21.757Z,7.37
2024-03-01T06:39:21.756Z,7.32
2024-03-01T06:40:21.777Z,7.37
2024-03-01T06:41:21.828Z,7.32
2024-03-01T06:42:21.730Z,7.43
2024-03-01T06:43:21.787Z,7.43
2024-03-01T06:44:21.713Z,7.35
2024-03-01T06:45:21.746Z,7.37
2024-03-01T06:46:21.801Z,7.40
2024-03-01T06:47:23.011Z,7.37
2024-03-01T06:48:22.713Z,7.40
2024-03-01T06:49:21.694Z,7.43
2024-03-01T06:50:21.672Z,7.43
2024-03-01T06:51:21.635Z,7.40
2024-03-01T06:52:21.670Z,7.46
2024-03-01T06:53:21.628Z,7.49
2024-03-01T06:54:21.606Z,7.48
2024-03-01T06:55:21.764Z,7.42
2024-03-01T06:56:21.569Z,7.49
2024-03-01T06:57:21.579Z,7.42
2024-03-01T06:58:21.658Z,7.48
2024-03-01T06:59:21.618Z,7.46
2024-03-01T07:00:21.565Z,7.46
2024-03-01T07:01:21.698Z,7.48
2024-03-01T07:02:21.553Z,7.53
2024-03-01T07:03:21.504Z,7.52
2024-03-01T07:04:21.526Z,7.50
2024-03-01T07:05:21.549Z,7.49
2024-03-01T07:06:21.482Z,7.50
2024-03-01T07:07:21.484Z,7.57
2024-03-01T07:08:21.455Z,7.57
2024-03-01T07:09:21.470Z,7.60
2024-03-01T07:10:21.467Z,7.61
2024-03-01T07:11:21.461Z,7.58
2024-03-01T07:12:21.408Z,7.60
2024-03-01T07:13:21.454Z,7.55
2024-03-01T07:14:21.458Z,7.61
2024-03-01T07:15:21.367Z,7.64
2024-03-01T07:16:21.441Z,7.72
2024-03-01T07:17:21.356Z,7.61
2024-03-01T07:18:21.362Z,7.67
2024-03-01T07:19:21.363Z,7.75
2024-03-01T07:20:21.327Z,7.67
2024-03-01T07:21:21.312Z,7.68
2024-03-01T07:22:21.335Z,7.69
2024-03-01T07:23:21.308Z,7.69
2024-03-01T07:24:21.273Z,7.71
2024-03-01T07:25:21.281Z,7.69
2024-03-01T07:26:21.239Z,7.69
2024-03-01T07:27:21.262Z,7.71
2024-03-01T07:28:21.304Z,7.72
2024-03-01T07:29:21.232Z,7.75
2024-03-01T07:30:21.218Z,7.74
2024-03-01T07:31:21.264Z,7.69
2024-03-01T07:32:21.209Z,7.72
2024-03-01T07:33:21.180Z,7.74
2024-03-01T07:34:21.234Z,7.79
2024-03-01T07:35:21.155Z,7.74
2024-03-01T07:36:21.148Z,7.79
2024-03-01T07:37:21.217Z,7.82
2024-03-01T07:38:21.128Z,7.80
2024-03-01T07:39:21.152Z,7.87
2024-03-01T07:40:21.147Z,7.85
2024-03-01T07:41:21.094Z,7.85
2024-03-01T07:42:21.127Z,7.89
2024-03-01T07:43:21.115Z,7.95
2024-03-01T07:44:21.059Z,7.93
2024-03-01T07:45:21.073Z,7.93
2024-03-01T07:46:21.180Z,7.97
2024-03-01T07:47:21.080Z,7.97
2024-03-01T07:48:21.013Z,7.97
2024-03-01T07:49:21.066Z,7.98
2024-03-01T07:50:21.025Z,7.93
2024-03-01T07:51:20.998Z,7.98
2024-03-01T07:52:21.007Z,8.02
2024-03-01T07:53:20.976Z,8.04
2024-03-01T07:54:20.959Z,8.07
2024-03-01T07:55:20.998Z,8.05
2024-03-01T07:56:20.956Z,8.04
2024-03-01T07:57:20.930Z,8.11
2024-03-01T07:58:20.927Z,8.05
2024-03-01T07:59:20.960Z,8.04
2024-03-01T08:00:20.946Z,8.02
2024-03-01T08:01:20.931Z,8.04
2024-03-01T08:02:20.860Z,8.01
2024-03-01T08:03:20.861Z,8.01
2024-03-01T08:04:20.869Z,7.98
2024-03-01T08:05:20.867Z,8.07
2024-03-01T08:06:20.848Z,8.00
2024-03-01T08:07:20.855Z,8.04
2024-03-01T08:08:20.819Z,8.04
2024-03-01T08:09:20.816Z,8.05
2024-03-01T08:10:20.812Z,8.08
2024-03-01T08:11:20.798Z,8.10
2024-03-01T08:12:20.775Z,8.04
2024-03-01T08:13:20.764Z,8.08
2024-03-01T08:14:20.745Z,8.01
2024-03-01T08:15:20.720Z,8.05
2024-03-01T08:16:20.787Z,8.04
2024-03-01T08:17:20.701Z,8.11
2024-03-01T08:18:20.874Z,8.05
2024-03-01T08:19:20.767Z,8.10
2024-03-01T08:20:20.670Z,8.05
2024-03-01T08:21:20.657Z,8.04
2024-03-01T08:22:20.846Z,8.12
2024-03-01T08:23:20.657Z,8.15
2024-03-01T08:24:20.661Z,8.11
2024-03-01T08:25:20.645Z,8.08
2024-03-01T08:26:22.060Z,8.11
2024-03-01T08:27:20.592Z,8.11
2024-03-01T08:28:20.654Z,8.07
2024-03-01T08:29:20.587Z,8.08
2024-03-01T08:30:20.593Z,8.11
2024-03-01T08:31:20.590Z,8.11
2024-03-01T08:32:20.580Z,8.08
2024-03-01T08:33:20.587Z,8.12
2024-03-01T08:34:20.645Z,8.08
2024-03-01T08:35:20.503Z,8.08
2024-03-01T08:36:20.523Z,8.11
2024-03-01T08:37:20.536Z,8.15
2024-03-01T08:38:20.498Z,8.20
2024-03-01T08:39:20.490Z,8.19
2024-03-01T08:40:20.529Z,8.16
2024-03-01T08:41:20.489Z,8.16
2024-03-01T08:42:20.462Z,8.15
2024-03-01T08:43:20.435Z,8.19
2024-03-01T08:44:20.428Z,8.18
2024-03-01T08:45:20.395Z,8.22
2024-03-01T08:46:20.504Z,8.28
2024-03-01T08:47:20.472Z,8.22
2024-03-01T08:48:20.387Z,8.25
2024-03-01T08:49:20.419Z,8.22
2024-03-01T08:50:20.377Z,8.23
2024-03-01T08:51:20.363Z,8.26
2024-03-01T08:52:20.377Z,8.19
2024-03-01T08:53:20.327Z,8.26
2024-03-01T08:54:20.323Z,8.25
2024-03-01T08:55:20.342Z,8.19
2024-03-01T08:56:20.332Z,8.28
2024-03-01T08:57:20.385Z,8.25
2024-03-01T08:58:20.306Z,8.22
2024-03-01T08:59:20.271Z,8.19
2024-03-01T09:00:20.258Z,8.20
2024-03-01T09:01:20.300Z,8.23
2024-03-01T09:02:20.273Z,8.28
2024-03-01T09:03:20.218Z,8.26
2024-03-01T09:04:20.227Z,8.29
2024-03-01T09:05:20.217Z,8.29
2024-03-01T09:06:20.191Z,8.29
2024-03-01T09:07:20.253Z,8.36
2024-03-01T09:08:20.183Z,8.34
2024-03-01T09:09:20.161Z,8.37
2024-03-01T09:10:20.185Z,8.38
2024-03-01T09:11:20.192Z,8.41
2024-03-01T09:12:20.956Z,8.44
2024-03-01T09:13:20.182Z,8.45
2024-03-01T09:14:20.129Z,8.48
2024-03-01T09:15:20.111Z,8.45
2024-03-01T09:16:20.261Z,8.48
2024-03-01T09:17:20.090Z,8.44
2024-03-01T09:18:20.083Z,8.48
2024-03-01T09:19:20.073Z,8.44
2024-03-01T09:20:20.074Z,8.45
2024-03-01T09:21:20.185Z,8.45
2024-03-01T09:22:20.062Z,8.50
2024-03-01T09:23:20.010Z,8.47
2024-03-01T09:24:20.016Z,8.45
2024-03-01T09:25:19.992Z,8.43
2024-03-01T09:26:19.975Z,8.44
2024-03-01T09:27:20.018Z,8.45
2024-03-01T09:28:20.020Z,8.48
2024-03-01T09:29:19.973Z,8.52
2024-03-01T09:30:19.951Z,8.52
2024-03-01T09:31:19.938Z,8.53
2024-03-01T09:32:19.926Z,8.56
2024-03-01T09:33:20.784Z,8.52
2024-03-01T09:34:19.937Z,8.59
2024-03-01T09:35:19.886Z,8.68
2024-03-01T09:36:19.865Z,8.68
2024-03-01T09:37:19.958Z,8.70
2024-03-01T09:38:19.874Z,8.71
2024-03-01T09:39:19.820Z,8.76
2024-03-01T09:40:19.851Z,8.76
2024-03-01T09:41:19.821Z,8.74
2024-03-01T09:42:19.817Z,8.73
2024-03-01T09:43:19.862Z,8.77
2024-03-01T09:44:19.785Z,8.73
2024-03-01T09:45:19.767Z,8.79
2024-03-01T09:46:19.785Z,8.77
2024-03-01T09:47:19.747Z,8.86
2024-03-01T09:48:19.761Z,8.83
2024-03-01T09:49:19.835Z,8.92
2024-03-01T09:50:19.701Z,8.96
2024-03-01T09:51:19.718Z,8.99
2024-03-01T09:52:19.760Z,9.11
2024-03-01T09:53:19.693Z,9.14
2024-03-01T09:54:19.674Z,9.14
2024-03-01T09:55:19.731Z,9.13
2024-03-01T09:56:19.669Z,9.10
2024-03-01T09:57:19.625Z,9.01
2024-03-01T09:58:19.692Z,9.02
2024-03-01T09:59:19.602Z,9.04
2024-03-01T10:00:19.629Z,9.02
2024-03-01T10:01:19.776Z,9.05
2024-03-01T10:02:19.606Z,9.10
2024-03-01T10:03:19.572Z,9.04
2024-03-01T10:04:19.654Z,9.11
2024-03-01T10:05:21.410Z,9.11
2024-03-01T10:06:19.549Z,9.05
2024-03-01T10:07:19.605Z,9.08
2024-03-01T10:08:19.533Z,9.08
2024-03-01T10:09:19.501Z,9.08
2024-03-01T10:10:19.609Z,9.14
2024-03-01T10:11:19.524Z,9.15
2024-03-01T10:12:19.483Z,9.18
2024-03-01T10:13:19.573Z,9.21
2024-03-01T10:14:19.447Z,9.21
2024-03-01T10:15:19.473Z,9.18
2024-03-01T10:16:19.513Z,9.17
2024-03-01T10:17:19.424Z,9.15
2024-03-01T10:18:19.416Z,9.18
2024-03-01T10:19:19.471Z,9.20
2024-03-01T10:20:19.413Z,9.23
2024-03-01T10:21:19.386Z,9.28
2024-03-01T10:22:19.373Z,9.29
2024-03-01T10:23:19.354Z,9.35
2024-03-01T10:24:19.407Z,9.39
2024-03-01T10:25:19.367Z,9.38
2024-03-01T10:26:19.322Z,9.39
2024-03-01T10:27:19.307Z,9.39
2024-03-01T10:28:19.338Z,9.38
2024-03-01T10:29:19.296Z,9.39
2024-03-01T10:30:19.273Z,9.47
2024-03-01T10:31:19.306Z,9.46
2024-03-01T10:32:19.255Z,9.48
2024-03-01T10:33:19.352Z,9.51
2024-03-01T10:34:19.395Z,9.57
2024-03-01T10:35:19.238Z,9.61
2024-03-01T10:36:19.232Z,9.68
2024-03-01T10:37:19.262Z,9.66
2024-03-01T10:38:19.287Z,9.64
2024-03-01T10:39:19.195Z,9.68
2024-03-01T10:40:19.845Z,9.65
2024-03-01T10:41:27.053Z,9.66
2024-03-01T10:42:19.176Z,9.69
2024-03-01T10:43:19.162Z,9.71
2024-03-01T10:44:19.145Z,9.71
2024-03-01T10:45:19.127Z,9.72
2024-03-01T10:46:19.122Z,9.74
2024-03-01T10:47:20.477Z,9.84
2024-03-01T10:48:19.154Z,9.78
2024-03-01T10:49:19.107Z,9.78
2024-03-01T10:50:19.152Z,9.89
2024-03-01T10:51:19.052Z,9.91
2024-03-01T10:52:19.127Z,9.97
2024-03-01T10:53:19.036Z,10.02
2024-03-01T10:54:19.030Z,10.01
2024-03-01T10:55:19.008Z,10.01
2024-03-01T10:56:18.997Z,10.05
2024-03-01T10:57:19.017Z,10.05
2024-03-01T10:58:19.044Z,10.09
2024-03-01T10:59:18.954Z,10.11
2024-03-01T11:00:18.968Z,10.11
2024-03-01T11:01:19.046Z,10.14
2024-03-01T11:02:19.005Z,10.14
2024-03-01T11:03:18.929Z,10.17
2024-03-01T11:04:18.959Z,10.18
2024-03-01T11:05:18.888Z,10.17
2024-03-01T11:06:18.913Z,10.17
2024-03-01T11:07:18.985Z,10.20
2024-03-01T11:08:18.876Z,10.18
2024-03-01T11:09:18.866Z,10.18
2024-03-01T11:10:18.866Z,10.18
2024-03-01T11:11:18.952Z,10.27
2024-03-01T11:12:18.835Z,10.27
2024-03-01T11:13:18.933Z,10.25
2024-03-01T11:14:18.797Z,10.25
2024-03-01T11:15:18.908Z,10.25
2024-03-01T11:16:18.888Z,10.32
2024-03-01T11:17:18.761Z,10.33
2024-03-01T11:18:18.930Z,10.34
2024-03-01T11:19:18.770Z,10.38
2024-03-01T11:20:18.764Z,10.41
2024-03-01T11:21:18.719Z,10.42
2024-03-01T11:22:18.746Z,10.48
2024-03-01T11:23:18.695Z,10.48
2024-03-01T11:24:18.686Z,10.53
2024-03-01T11:25:18.772Z,10.52
2024-03-01T11:26:18.671Z,10.51
2024-03-01T11:27:18.656Z,10.55
2024-03-01T11:28:18.712Z,10.61
2024-03-01T11:29:18.722Z,10.66
2024-03-01T11:30:18.638Z,10.67
2024-03-01T11:31:18.681Z,10.64
2024-03-01T11:32:20.421Z,10.71
2024-03-01T11:33:18.687Z,10.70
2024-03-01T11:34:18.697Z,10.73
2024-03-01T11:35:18.576Z,10.82
2024-03-01T11:36:18.570Z,10.79
2024-03-01T11:37:18.586Z,10.84
2024-03-01T11:38:18.534Z,10.85
2024-03-01T11:39:18.550Z,10.86
2024-03-01T11:40:18.558Z,10.86
2024-03-01T11:41:18.495Z,10.88
2024-03-01T11:42:23.531Z,10.86
2024-03-01T11:43:18.521Z,10.88
2024-03-01T11:44:18.531Z,10.84
2024-03-01T11:45:18.478Z,10.82
2024-03-01T11:46:18.507Z,10.81
2024-03-01T11:47:18.451Z,10.82
2024-03-01T11:48:18.457Z,10.81
2024-03-01T11:49:18.485Z,10.82
2024-03-01T11:50:18.441Z,10.79
2024-03-01T11:51:18.508Z,10.79
2024-03-01T11:52:18.394Z,10.81
2024-03-01T11:53:18.389Z,10.73
2024-03-01T11:54:18.379Z,10.78
2024-03-01T11:55:18.395Z,10.74
2024-03-01T11:56:18.338Z,10.79
2024-03-01T11:57:18.349Z,10.74
2024-03-01T11:58:18.406Z,10.79
2024-03-01T11:59:18.318Z,10.76
2024-03-01T12:00:18.311Z,10.76
2024-03-01T12:01:18.369Z,10.79
2024-03-01T12:02:18.345Z,10.81
2024-03-01T12:03:18.312Z,10.73
2024-03-01T12:04:18.293Z,10.73
2024-03-01T12:05:18.293Z,10.78
2024-03-01T12:06:18.233Z,10.74
2024-03-01T12:07:18.297Z,10.79
2024-03-01T12:08:18.214Z,10.74
2024-03-01T12:09:18.201Z,10.78
2024-03-01T12:10:18.217Z,10.81
2024-03-01T12:11:18.220Z,10.78
2024-03-01T12:12:18.187Z,10.81
2024-03-01T12:13:18.551Z,10.81
2024-03-01T12:14:18.165Z,10.84
2024-03-01T12:15:18.145Z,10.84
2024-03-01T12:16:18.167Z,10.84
2024-03-01T12:17:18.160Z,10.79
2024-03-01T12:18:18.121Z,10.84
2024-03-01T12:19:18.235Z,10.86
2024-03-01T12:20:18.094Z,10.86
2024-03-01T12:21:18.095Z,10.89
2024-03-01T12:22:18.097Z,10.86
2024-03-01T12:23:18.085Z,10.89
2024-03-01T12:24:18.033Z,10.92
2024-03-01T12:25:18.162Z,10.97
2024-03-01T12:26:18.036Z,10.96
2024-03-01T12:27:18.010Z,11.00
2024-03-01T12:28:18.062Z,11.00
2024-03-01T12:29:18.042Z,11.03
2024-03-01T12:30:18.008Z,11.03
2024-03-01T12:31:18.008Z,11.07
2024-03-01T12:32:17.948Z,11.04
2024-03-01T12:33:17.958Z,11.09
2024-03-01T12:34:17.969Z,11.06
2024-03-01T12:35:17.953Z,11.07
2024-03-01T12:36:18.572Z,11.09
2024-03-01T12:37:17.950Z,11.07
2024-03-01T12:38:17.894Z,11.09
2024-03-01T12:39:17.897Z,11.03
2024-03-01T12:40:18.866Z,11.03
2024-03-01T12:41:17.867Z,11.06
2024-03-01T12:42:17.858Z,11.04
2024-03-01T12:43:21.689Z,11.04
2024-03-01T12:44:17.845Z,11.02
2024-03-01T12:45:18.011Z,11.07
2024-03-01T12:46:17.822Z,11.04
2024-03-01T12:47:17.812Z,11.10
2024-03-01T12:48:17.840Z,11.11
2024-03-01T12:49:17.862Z,11.10
2024-03-01T12:50:17.782Z,11.11
2024-03-01T12:51:17.792Z,11.11
2024-03-01T12:52:17.762Z,11.10
2024-03-01T12:53:17.744Z,11.11
2024-03-01T12:54:17.739Z,11.11
2024-03-01T12:55:17.796Z,11.07
2024-03-01T12:56:17.724Z,11.09
2024-03-01T12:57:17.686Z,11.04
2024-03-01T12:58:17.715Z,11.00
2024-03-01T12:59:17.691Z,11.02
2024-03-01T13:00:17.747Z,11.06
2024-03-01T13:01:17.739Z,10.99
2024-03-01T13:02:17.630Z,11.00
2024-03-01T13:03:17.697Z,11.00
2024-03-01T13:04:17.727Z,10.97
2024-03-01T13:05:17.692Z,11.02
2024-03-01T13:06:17.580Z,11.03
2024-03-01T13:07:17.621Z,11.00
2024-03-01T13:08:17.600Z,11.03
2024-03-01T13:09:17.555Z,11.00
2024-03-01T13:10:17.555Z,11.07
2024-03-01T13:11:17.613Z,11.07
2024-03-01T13:12:17.547Z,11.06
2024-03-01T13:13:17.530Z,11.07
2024-03-01T13:14:17.536Z,11.06
2024-03-01T13:15:17.486Z,11.06
2024-03-01T13:16:17.609Z,11.04
2024-03-01T13:17:25.426Z,11.09
2024-03-01T13:18:17.465Z,11.07